sensor_id;sensor_type;location;lat;lon;timestamp;temperature;humidity
40636;DHT22;26642;55.766;37.828;2022-10-18T00:02:16;15.20;76.20
40636;DHT22;26642;55.766;37.828;2022-10-18T00:04:41;15.20;76.30
40636;DHT22;26642;55.766;37.828;2022-10-18T00:07:07;15.20;76.20
40636;DHT22;26642;55.766;37.828;2022-10-18T00:09:33;15.30;76.40
40636;DHT22;26642;55.766;37.828;2022-10-18T00:11:59;15.20;76.20
40636;DHT22;26642;55.766;37.828;2022-10-18T00:14:25;15.20;76.10
40636;DHT22;26642;55.766;37.828;2022-10-18T00:16:51;15.20;76.10
40636;DHT22;26642;55.766;37.828;2022-10-18T00:19:17;15.30;76.30
40636;DHT22;26642;55.766;37.828;2022-10-18T00:21:43;15.20;76.10
40636;DHT22;26642;55.766;37.828;2022-10-18T00:24:09;15.20;76.30
40636;DHT22;26642;55.766;37.828;2022-10-18T00:26:34;15.20;76.20
40636;DHT22;26642;55.766;37.828;2022-10-18T00:29:03;15.20;76.20
40636;DHT22;26642;55.766;37.828;2022-10-18T00:31:34;15.20;76.20
40636;DHT22;26642;55.766;37.828;2022-10-18T00:34:04;15.20;76.20
40636;DHT22;26642;55.766;37.828;2022-10-18T00:36:32;15.20;76.10
40636;DHT22;26642;55.766;37.828;2022-10-18T00:39:00;15.20;75.90
40636;DHT22;26642;55.766;37.828;2022-10-18T00:41:29;15.20;75.90
40636;DHT22;26642;55.766;37.828;2022-10-18T00:46:31;15.20;75.80
40636;DHT22;26642;55.766;37.828;2022-10-18T00:49:00;15.20;76.00
40636;DHT22;26642;55.766;37.828;2022-10-18T00:51:31;15.20;75.90
40636;DHT22;26642;55.766;37.828;2022-10-18T00:53:57;15.20;76.00
40636;DHT22;26642;55.766;37.828;2022-10-18T00:56:24;15.20;76.00
40636;DHT22;26642;55.766;37.828;2022-10-18T00:58:50;15.20;75.90
40636;DHT22;26642;55.766;37.828;2022-10-18T01:01:16;15.20;75.80
40636;DHT22;26642;55.766;37.828;2022-10-18T01:03:42;15.20;75.60
40636;DHT22;26642;55.766;37.828;2022-10-18T01:06:09;15.20;75.40
40636;DHT22;26642;55.766;37.828;2022-10-18T01:14:28;15.20;75.40
40636;DHT22;26642;55.766;37.828;2022-10-18T01:18:05;15.20;75.40
40636;DHT22;26642;55.766;37.828;2022-10-18T01:22:38;15.20;75.30
40636;DHT22;26642;55.766;37.828;2022-10-18T01:31:36;15.20;75.10
40636;DHT22;26642;55.766;37.828;2022-10-18T01:34:06;15.20;75.20
40636;DHT22;26642;55.766;37.828;2022-10-18T01:36:35;15.20;75.00
40636;DHT22;26642;55.766;37.828;2022-10-18T01:39:10;15.20;75.00
40636;DHT22;26642;55.766;37.828;2022-10-18T01:41:38;15.20;75.00
40636;DHT22;26642;55.766;37.828;2022-10-18T01:44:14;15.20;75.00
40636;DHT22;26642;55.766;37.828;2022-10-18T01:46:41;15.20;75.00
40636;DHT22;26642;55.766;37.828;2022-10-18T01:49:08;15.20;75.10
40636;DHT22;26642;55.766;37.828;2022-10-18T01:51:34;15.20;75.10
40636;DHT22;26642;55.766;37.828;2022-10-18T01:54:00;15.20;75.10
40636;DHT22;26642;55.766;37.828;2022-10-18T01:56:34;15.10;74.90
40636;DHT22;26642;55.766;37.828;2022-10-18T01:59:21;15.20;75.00
40636;DHT22;26642;55.766;37.828;2022-10-18T02:04:51;15.20;75.00
40636;DHT22;26642;55.766;37.828;2022-10-18T02:07:31;15.20;75.60
40636;DHT22;26642;55.766;37.828;2022-10-18T02:12:29;15.10;75.10
40636;DHT22;26642;55.766;37.828;2022-10-18T02:14:57;15.20;75.10
40636;DHT22;26642;55.766;37.828;2022-10-18T02:17:25;15.20;75.10
40636;DHT22;26642;55.766;37.828;2022-10-18T02:19:54;15.20;75.10
40636;DHT22;26642;55.766;37.828;2022-10-18T02:22:24;15.20;75.10
40636;DHT22;26642;55.766;37.828;2022-10-18T02:24:54;15.20;74.90
40636;DHT22;26642;55.766;37.828;2022-10-18T02:27:21;15.20;74.90
40636;DHT22;26642;55.766;37.828;2022-10-18T02:29:47;15.20;75.00
40636;DHT22;26642;55.766;37.828;2022-10-18T02:35:13;15.20;74.80
40636;DHT22;26642;55.766;37.828;2022-10-18T02:37:43;15.20;75.00
40636;DHT22;26642;55.766;37.828;2022-10-18T02:40:12;15.20;74.80
40636;DHT22;26642;55.766;37.828;2022-10-18T02:42:44;15.20;74.80
40636;DHT22;26642;55.766;37.828;2022-10-18T02:45:11;15.20;74.80
40636;DHT22;26642;55.766;37.828;2022-10-18T02:47:37;15.20;74.80
40636;DHT22;26642;55.766;37.828;2022-10-18T02:50:04;15.20;74.70
40636;DHT22;26642;55.766;37.828;2022-10-18T02:52:30;15.20;74.80
40636;DHT22;26642;55.766;37.828;2022-10-18T02:54:56;15.20;74.80
40636;DHT22;26642;55.766;37.828;2022-10-18T02:57:22;15.20;74.80
40636;DHT22;26642;55.766;37.828;2022-10-18T02:59:47;15.20;74.70
40636;DHT22;26642;55.766;37.828;2022-10-18T03:02:13;15.20;74.70
40636;DHT22;26642;55.766;37.828;2022-10-18T03:04:39;15.20;74.60
40636;DHT22;26642;55.766;37.828;2022-10-18T03:07:05;15.20;74.50
40636;DHT22;26642;55.766;37.828;2022-10-18T03:09:31;15.20;74.60
40636;DHT22;26642;55.766;37.828;2022-10-18T03:11:57;15.20;74.50
40636;DHT22;26642;55.766;37.828;2022-10-18T03:14:23;15.20;74.50
40636;DHT22;26642;55.766;37.828;2022-10-18T03:16:48;15.20;74.50
40636;DHT22;26642;55.766;37.828;2022-10-18T03:19:14;15.20;74.40
40636;DHT22;26642;55.766;37.828;2022-10-18T03:21:40;15.20;74.40
40636;DHT22;26642;55.766;37.828;2022-10-18T03:24:06;15.20;74.30
40636;DHT22;26642;55.766;37.828;2022-10-18T03:26:32;15.20;74.20
40636;DHT22;26642;55.766;37.828;2022-10-18T03:28:58;15.20;74.20
40636;DHT22;26642;55.766;37.828;2022-10-18T03:31:24;15.20;74.10
40636;DHT22;26642;55.766;37.828;2022-10-18T03:33:50;15.20;74.10
40636;DHT22;26642;55.766;37.828;2022-10-18T03:36:16;15.20;74.10
40636;DHT22;26642;55.766;37.828;2022-10-18T03:38:42;15.20;74.20
40636;DHT22;26642;55.766;37.828;2022-10-18T03:41:08;15.10;74.10
40636;DHT22;26642;55.766;37.828;2022-10-18T03:43:34;15.20;74.20
40636;DHT22;26642;55.766;37.828;2022-10-18T03:45:59;15.20;74.20
40636;DHT22;26642;55.766;37.828;2022-10-18T03:48:26;15.20;74.10
40636;DHT22;26642;55.766;37.828;2022-10-18T03:50:52;15.20;74.10
40636;DHT22;26642;55.766;37.828;2022-10-18T03:53:18;15.20;74.10
40636;DHT22;26642;55.766;37.828;2022-10-18T03:55:44;15.20;74.10
40636;DHT22;26642;55.766;37.828;2022-10-18T03:58:10;15.20;74.00
40636;DHT22;26642;55.766;37.828;2022-10-18T04:00:36;15.20;74.00
40636;DHT22;26642;55.766;37.828;2022-10-18T04:03:02;15.20;74.20
40636;DHT22;26642;55.766;37.828;2022-10-18T04:05:28;15.20;74.30
40636;DHT22;26642;55.766;37.828;2022-10-18T04:07:56;15.20;74.20
40636;DHT22;26642;55.766;37.828;2022-10-18T04:10:23;15.20;74.20
40636;DHT22;26642;55.766;37.828;2022-10-18T04:12:49;15.20;74.30
40636;DHT22;26642;55.766;37.828;2022-10-18T04:15:15;15.20;74.30
40636;DHT22;26642;55.766;37.828;2022-10-18T04:17:40;15.20;74.30
40636;DHT22;26642;55.766;37.828;2022-10-18T04:20:07;15.20;74.40
40636;DHT22;26642;55.766;37.828;2022-10-18T04:22:33;15.20;74.30
40636;DHT22;26642;55.766;37.828;2022-10-18T04:24:59;15.20;74.40
40636;DHT22;26642;55.766;37.828;2022-10-18T04:27:24;15.20;74.40
40636;DHT22;26642;55.766;37.828;2022-10-18T04:29:50;15.20;74.30
40636;DHT22;26642;55.766;37.828;2022-10-18T04:32:16;15.20;74.30
40636;DHT22;26642;55.766;37.828;2022-10-18T04:34:42;15.20;74.20
40636;DHT22;26642;55.766;37.828;2022-10-18T04:37:08;15.20;74.10
40636;DHT22;26642;55.766;37.828;2022-10-18T04:39:34;15.20;73.90
40636;DHT22;26642;55.766;37.828;2022-10-18T04:42:00;15.20;73.70
40636;DHT22;26642;55.766;37.828;2022-10-18T04:44:25;15.20;73.70
40636;DHT22;26642;55.766;37.828;2022-10-18T04:46:51;15.20;73.70
40636;DHT22;26642;55.766;37.828;2022-10-18T04:49:17;15.20;73.70
40636;DHT22;26642;55.766;37.828;2022-10-18T04:51:43;15.20;73.90
40636;DHT22;26642;55.766;37.828;2022-10-18T04:54:09;15.20;74.30
40636;DHT22;26642;55.766;37.828;2022-10-18T04:56:35;15.20;74.70
40636;DHT22;26642;55.766;37.828;2022-10-18T04:59:01;15.30;75.10
40636;DHT22;26642;55.766;37.828;2022-10-18T05:01:26;15.30;75.20
40636;DHT22;26642;55.766;37.828;2022-10-18T05:03:53;15.30;75.30
40636;DHT22;26642;55.766;37.828;2022-10-18T05:06:20;15.30;75.30
40636;DHT22;26642;55.766;37.828;2022-10-18T05:08:47;15.30;75.30
40636;DHT22;26642;55.766;37.828;2022-10-18T05:11:13;15.30;75.50
40636;DHT22;26642;55.766;37.828;2022-10-18T05:13:39;15.30;75.60
40636;DHT22;26642;55.766;37.828;2022-10-18T05:16:05;15.30;75.90
40636;DHT22;26642;55.766;37.828;2022-10-18T05:18:31;15.30;76.00
40636;DHT22;26642;55.766;37.828;2022-10-18T05:20:57;15.30;75.90
40636;DHT22;26642;55.766;37.828;2022-10-18T05:23:23;15.30;75.80
40636;DHT22;26642;55.766;37.828;2022-10-18T05:25:49;15.30;75.60
40636;DHT22;26642;55.766;37.828;2022-10-18T05:28:15;15.30;75.40
40636;DHT22;26642;55.766;37.828;2022-10-18T05:30:41;15.40;75.20
40636;DHT22;26642;55.766;37.828;2022-10-18T05:33:07;15.30;75.10
40636;DHT22;26642;55.766;37.828;2022-10-18T05:35:34;15.40;75.00
40636;DHT22;26642;55.766;37.828;2022-10-18T05:38:04;15.30;75.40
40636;DHT22;26642;55.766;37.828;2022-10-18T05:40:36;15.40;74.80
40636;DHT22;26642;55.766;37.828;2022-10-18T05:43:02;15.30;74.60
40636;DHT22;26642;55.766;37.828;2022-10-18T05:45:28;15.40;74.50
40636;DHT22;26642;55.766;37.828;2022-10-18T05:47:54;15.40;74.30
40636;DHT22;26642;55.766;37.828;2022-10-18T05:50:20;15.40;74.40
40636;DHT22;26642;55.766;37.828;2022-10-18T05:52:45;15.30;74.30
40636;DHT22;26642;55.766;37.828;2022-10-18T05:55:11;15.40;74.60
40636;DHT22;26642;55.766;37.828;2022-10-18T05:57:37;15.40;74.60
40636;DHT22;26642;55.766;37.828;2022-10-18T06:00:03;15.30;74.60
40636;DHT22;26642;55.766;37.828;2022-10-18T06:02:37;15.40;74.60
40636;DHT22;26642;55.766;37.828;2022-10-18T06:05:03;15.40;74.70
40636;DHT22;26642;55.766;37.828;2022-10-18T06:07:29;15.40;74.60
40636;DHT22;26642;55.766;37.828;2022-10-18T06:09:55;15.40;74.70
40636;DHT22;26642;55.766;37.828;2022-10-18T06:12:21;15.40;74.70
40636;DHT22;26642;55.766;37.828;2022-10-18T06:14:46;15.40;74.70
40636;DHT22;26642;55.766;37.828;2022-10-18T06:17:14;15.40;74.60
40636;DHT22;26642;55.766;37.828;2022-10-18T06:19:39;15.40;74.60
40636;DHT22;26642;55.766;37.828;2022-10-18T06:22:07;15.40;74.40
40636;DHT22;26642;55.766;37.828;2022-10-18T06:24:34;15.40;74.30
40636;DHT22;26642;55.766;37.828;2022-10-18T06:27:00;15.40;74.20
40636;DHT22;26642;55.766;37.828;2022-10-18T06:29:28;15.40;74.30
40636;DHT22;26642;55.766;37.828;2022-10-18T06:31:54;15.40;74.30
40636;DHT22;26642;55.766;37.828;2022-10-18T06:34:20;15.40;74.30
40636;DHT22;26642;55.766;37.828;2022-10-18T06:36:46;15.40;74.30
40636;DHT22;26642;55.766;37.828;2022-10-18T06:39:12;15.40;74.30
40636;DHT22;26642;55.766;37.828;2022-10-18T06:41:38;15.40;74.30
40636;DHT22;26642;55.766;37.828;2022-10-18T06:44:18;15.30;74.10
40636;DHT22;26642;55.766;37.828;2022-10-18T06:46:45;15.40;74.00
40636;DHT22;26642;55.766;37.828;2022-10-18T06:49:12;15.40;73.90
40636;DHT22;26642;55.766;37.828;2022-10-18T06:51:42;15.40;74.00
40636;DHT22;26642;55.766;37.828;2022-10-18T06:54:09;15.40;74.20
40636;DHT22;26642;55.766;37.828;2022-10-18T06:56:35;15.30;74.20
40636;DHT22;26642;55.766;37.828;2022-10-18T06:59:02;15.40;74.30
40636;DHT22;26642;55.766;37.828;2022-10-18T07:01:28;15.40;74.40
40636;DHT22;26642;55.766;37.828;2022-10-18T07:03:55;15.40;74.50
40636;DHT22;26642;55.766;37.828;2022-10-18T07:06:22;15.40;74.50
40636;DHT22;26642;55.766;37.828;2022-10-18T07:08:49;15.40;74.70
40636;DHT22;26642;55.766;37.828;2022-10-18T07:11:20;15.40;74.80
40636;DHT22;26642;55.766;37.828;2022-10-18T07:13:49;15.40;74.90
40636;DHT22;26642;55.766;37.828;2022-10-18T07:16:17;15.40;74.80
40636;DHT22;26642;55.766;37.828;2022-10-18T07:18:46;15.40;75.00
40636;DHT22;26642;55.766;37.828;2022-10-18T07:21:16;15.40;75.20
40636;DHT22;26642;55.766;37.828;2022-10-18T07:23:43;15.40;75.10
40636;DHT22;26642;55.766;37.828;2022-10-18T07:26:16;15.40;75.20
40636;DHT22;26642;55.766;37.828;2022-10-18T07:28:44;15.40;75.30
40636;DHT22;26642;55.766;37.828;2022-10-18T07:31:11;15.40;75.60
40636;DHT22;26642;55.766;37.828;2022-10-18T07:33:37;15.40;74.90
40636;DHT22;26642;55.766;37.828;2022-10-18T07:36:05;15.40;74.70
40636;DHT22;26642;55.766;37.828;2022-10-18T07:38:31;15.40;74.40
40636;DHT22;26642;55.766;37.828;2022-10-18T07:40:58;15.40;74.50
40636;DHT22;26642;55.766;37.828;2022-10-18T07:43:24;15.30;75.40
40636;DHT22;26642;55.766;37.828;2022-10-18T07:45:52;15.30;75.70
40636;DHT22;26642;55.766;37.828;2022-10-18T07:48:18;15.30;75.60
40636;DHT22;26642;55.766;37.828;2022-10-18T07:50:44;15.30;75.60
40636;DHT22;26642;55.766;37.828;2022-10-18T07:53:09;15.30;75.80
40636;DHT22;26642;55.766;37.828;2022-10-18T07:55:35;15.30;75.70
40636;DHT22;26642;55.766;37.828;2022-10-18T07:58:02;15.20;75.60
40636;DHT22;26642;55.766;37.828;2022-10-18T08:00:27;15.30;75.80
40636;DHT22;26642;55.766;37.828;2022-10-18T08:02:58;15.20;76.00
40636;DHT22;26642;55.766;37.828;2022-10-18T08:05:25;15.20;76.10
40636;DHT22;26642;55.766;37.828;2022-10-18T08:07:52;15.20;76.30
40636;DHT22;26642;55.766;37.828;2022-10-18T08:10:19;15.20;76.30
40636;DHT22;26642;55.766;37.828;2022-10-18T08:12:45;15.20;76.40
40636;DHT22;26642;55.766;37.828;2022-10-18T08:15:11;15.20;76.20
40636;DHT22;26642;55.766;37.828;2022-10-18T08:17:37;15.20;76.20
40636;DHT22;26642;55.766;37.828;2022-10-18T08:20:03;15.20;76.40
40636;DHT22;26642;55.766;37.828;2022-10-18T08:22:29;15.20;76.30
40636;DHT22;26642;55.766;37.828;2022-10-18T08:24:56;15.20;76.40
40636;DHT22;26642;55.766;37.828;2022-10-18T08:27:22;15.20;76.40
40636;DHT22;26642;55.766;37.828;2022-10-18T08:29:51;15.20;76.40
40636;DHT22;26642;55.766;37.828;2022-10-18T08:32:17;15.20;76.30
40636;DHT22;26642;55.766;37.828;2022-10-18T08:34:43;15.20;76.30
40636;DHT22;26642;55.766;37.828;2022-10-18T08:37:08;15.20;76.40
40636;DHT22;26642;55.766;37.828;2022-10-18T08:39:34;15.20;76.40
40636;DHT22;26642;55.766;37.828;2022-10-18T08:45:10;15.10;76.00
40636;DHT22;26642;55.766;37.828;2022-10-18T08:47:42;15.10;75.80
40636;DHT22;26642;55.766;37.828;2022-10-18T08:50:13;15.10;75.80
40636;DHT22;26642;55.766;37.828;2022-10-18T08:57:49;15.00;76.00
40636;DHT22;26642;55.766;37.828;2022-10-18T09:00:18;15.00;76.20
40636;DHT22;26642;55.766;37.828;2022-10-18T09:02:54;15.00;76.20
40636;DHT22;26642;55.766;37.828;2022-10-18T09:05:30;15.00;76.40
40636;DHT22;26642;55.766;37.828;2022-10-18T09:08:10;15.00;76.20
40636;DHT22;26642;55.766;37.828;2022-10-18T09:16:24;14.90;76.00
40636;DHT22;26642;55.766;37.828;2022-10-18T09:19:25;14.90;76.20
40636;DHT22;26642;55.766;37.828;2022-10-18T09:22:12;14.90;76.40
40636;DHT22;26642;55.766;37.828;2022-10-18T09:24:43;14.90;76.60
40636;DHT22;26642;55.766;37.828;2022-10-18T09:27:19;14.80;76.80
40636;DHT22;26642;55.766;37.828;2022-10-18T09:35:24;14.80;77.00
40636;DHT22;26642;55.766;37.828;2022-10-18T09:37:59;14.80;77.10
40636;DHT22;26642;55.766;37.828;2022-10-18T09:40:28;14.80;77.20
40636;DHT22;26642;55.766;37.828;2022-10-18T09:43:02;14.80;77.40
40636;DHT22;26642;55.766;37.828;2022-10-18T09:45:35;14.80;77.50
40636;DHT22;26642;55.766;37.828;2022-10-18T09:53:41;14.70;77.90
40636;DHT22;26642;55.766;37.828;2022-10-18T09:56:15;14.70;77.90
40636;DHT22;26642;55.766;37.828;2022-10-18T09:58:44;14.70;77.90
40636;DHT22;26642;55.766;37.828;2022-10-18T10:01:14;14.70;78.10
40636;DHT22;26642;55.766;37.828;2022-10-18T10:03:41;14.70;78.10
40636;DHT22;26642;55.766;37.828;2022-10-18T10:08:45;14.70;78.40
40636;DHT22;26642;55.766;37.828;2022-10-18T10:11:37;14.70;78.30
40636;DHT22;26642;55.766;37.828;2022-10-18T10:14:14;14.70;78.30
40636;DHT22;26642;55.766;37.828;2022-10-18T10:17:05;14.70;78.40
40636;DHT22;26642;55.766;37.828;2022-10-18T10:19:34;14.70;78.50
40636;DHT22;26642;55.766;37.828;2022-10-18T10:29:51;14.70;78.80
40636;DHT22;26642;55.766;37.828;2022-10-18T10:32:22;14.70;79.00
40636;DHT22;26642;55.766;37.828;2022-10-18T10:34:48;14.70;79.00
40636;DHT22;26642;55.766;37.828;2022-10-18T10:37:35;14.70;79.20
40636;DHT22;26642;55.766;37.828;2022-10-18T10:43:12;14.70;79.20
40636;DHT22;26642;55.766;37.828;2022-10-18T10:48:21;14.70;79.40
40636;DHT22;26642;55.766;37.828;2022-10-18T10:51:00;14.70;79.50
40636;DHT22;26642;55.766;37.828;2022-10-18T10:56:00;14.70;80.20
40636;DHT22;26642;55.766;37.828;2022-10-18T10:58:28;14.70;79.60
40636;DHT22;26642;55.766;37.828;2022-10-18T11:01:20;14.70;79.80
40636;DHT22;26642;55.766;37.828;2022-10-18T11:03:48;14.70;79.90
40636;DHT22;26642;55.766;37.828;2022-10-18T11:12:24;14.80;80.30
40636;DHT22;26642;55.766;37.828;2022-10-18T11:18:17;14.80;80.60
40636;DHT22;26642;55.766;37.828;2022-10-18T11:21:04;14.80;80.90
40636;DHT22;26642;55.766;37.828;2022-10-18T11:23:37;14.80;81.20
40636;DHT22;26642;55.766;37.828;2022-10-18T11:26:14;14.80;81.40
40636;DHT22;26642;55.766;37.828;2022-10-18T11:31:26;14.80;81.70
40636;DHT22;26642;55.766;37.828;2022-10-18T11:34:21;14.90;82.00
40636;DHT22;26642;55.766;37.828;2022-10-18T11:39:45;14.90;82.50
40636;DHT22;26642;55.766;37.828;2022-10-18T11:42:21;14.90;82.80
40636;DHT22;26642;55.766;37.828;2022-10-18T11:46:14;15.00;83.00
40636;DHT22;26642;55.766;37.828;2022-10-18T11:50:50;15.00;83.70
40636;DHT22;26642;55.766;37.828;2022-10-18T11:59:29;15.10;84.10
40636;DHT22;26642;55.766;37.828;2022-10-18T12:04:55;15.10;84.70
40636;DHT22;26642;55.766;37.828;2022-10-18T12:07:22;15.20;85.00
40636;DHT22;26642;55.766;37.828;2022-10-18T12:09:50;15.20;85.70
40636;DHT22;26642;55.766;37.828;2022-10-18T12:12:34;15.20;85.30
40636;DHT22;26642;55.766;37.828;2022-10-18T12:15:05;15.20;85.30
40636;DHT22;26642;55.766;37.828;2022-10-18T12:17:38;15.30;85.40
40636;DHT22;26642;55.766;37.828;2022-10-18T12:20:31;15.30;85.10
40636;DHT22;26642;55.766;37.828;2022-10-18T12:22:59;15.40;85.60
40636;DHT22;26642;55.766;37.828;2022-10-18T12:25:28;15.30;85.60
40636;DHT22;26642;55.766;37.828;2022-10-18T12:28:16;15.40;85.70
40636;DHT22;26642;55.766;37.828;2022-10-18T12:31:06;15.40;85.70
40636;DHT22;26642;55.766;37.828;2022-10-18T12:33:49;15.40;85.90
40636;DHT22;26642;55.766;37.828;2022-10-18T12:36:26;15.50;85.90
40636;DHT22;26642;55.766;37.828;2022-10-18T12:39:01;15.50;86.20
40636;DHT22;26642;55.766;37.828;2022-10-18T12:41:30;15.50;86.20
40636;DHT22;26642;55.766;37.828;2022-10-18T12:44:34;15.60;86.20
40636;DHT22;26642;55.766;37.828;2022-10-18T12:47:04;15.60;86.00
40636;DHT22;26642;55.766;37.828;2022-10-18T12:49:36;15.60;86.60
40636;DHT22;26642;55.766;37.828;2022-10-18T12:52:21;15.70;86.70
40636;DHT22;26642;55.766;37.828;2022-10-18T12:57:59;15.70;87.00
40636;DHT22;26642;55.766;37.828;2022-10-18T13:19:09;15.90;87.40
40636;DHT22;26642;55.766;37.828;2022-10-18T13:21:46;15.90;87.40
40636;DHT22;26642;55.766;37.828;2022-10-18T13:24:25;15.90;87.30
40636;DHT22;26642;55.766;37.828;2022-10-18T13:34:48;16.00;86.80
40636;DHT22;26642;55.766;37.828;2022-10-18T13:39:41;16.00;86.30
40636;DHT22;26642;55.766;37.828;2022-10-18T13:44:39;16.10;86.20
40636;DHT22;26642;55.766;37.828;2022-10-18T13:58:06;16.20;84.70
40636;DHT22;26642;55.766;37.828;2022-10-18T14:08:36;16.40;87.90
40636;DHT22;26642;55.766;37.828;2022-10-18T14:13:42;16.70;87.00
40636;DHT22;26642;55.766;37.828;2022-10-18T14:16:45;16.80;86.60
40636;DHT22;26642;55.766;37.828;2022-10-18T14:19:38;17.00;85.80
40636;DHT22;26642;55.766;37.828;2022-10-18T14:22:37;17.20;85.50
40636;DHT22;26642;55.766;37.828;2022-10-18T14:25:16;17.20;84.30
40636;DHT22;26642;55.766;37.828;2022-10-18T14:27:43;17.30;82.70
40636;DHT22;26642;55.766;37.828;2022-10-18T14:30:15;17.30;82.20
40636;DHT22;26642;55.766;37.828;2022-10-18T14:32:46;17.30;82.00
40636;DHT22;26642;55.766;37.828;2022-10-18T14:35:20;17.30;81.60
40636;DHT22;26642;55.766;37.828;2022-10-18T14:37:49;17.30;81.50
40636;DHT22;26642;55.766;37.828;2022-10-18T14:40:35;17.20;81.30
40636;DHT22;26642;55.766;37.828;2022-10-18T14:43:17;17.20;81.40
40636;DHT22;26642;55.766;37.828;2022-10-18T14:45:44;17.20;81.20
40636;DHT22;26642;55.766;37.828;2022-10-18T14:48:20;17.20;81.20
40636;DHT22;26642;55.766;37.828;2022-10-18T14:50:55;17.20;81.20
40636;DHT22;26642;55.766;37.828;2022-10-18T14:53:27;17.20;81.20
40636;DHT22;26642;55.766;37.828;2022-10-18T14:55:58;17.20;81.40
40636;DHT22;26642;55.766;37.828;2022-10-18T14:58:30;17.20;81.40
40636;DHT22;26642;55.766;37.828;2022-10-18T15:00:56;17.20;81.40
40636;DHT22;26642;55.766;37.828;2022-10-18T15:03:23;17.20;81.40
40636;DHT22;26642;55.766;37.828;2022-10-18T15:06:14;17.20;81.70
40636;DHT22;26642;55.766;37.828;2022-10-18T15:08:42;17.20;81.60
40636;DHT22;26642;55.766;37.828;2022-10-18T15:11:09;17.20;81.90
40636;DHT22;26642;55.766;37.828;2022-10-18T15:13:41;17.20;81.70
40636;DHT22;26642;55.766;37.828;2022-10-18T15:16:18;17.20;82.00
40636;DHT22;26642;55.766;37.828;2022-10-18T15:19:02;17.30;82.20
40636;DHT22;26642;55.766;37.828;2022-10-18T15:21:28;17.30;82.90
40636;DHT22;26642;55.766;37.828;2022-10-18T15:24:18;17.30;82.30
40636;DHT22;26642;55.766;37.828;2022-10-18T15:26:45;17.30;82.30
40636;DHT22;26642;55.766;37.828;2022-10-18T15:29:19;17.30;82.20
40636;DHT22;26642;55.766;37.828;2022-10-18T15:31:47;17.30;82.20
40636;DHT22;26642;55.766;37.828;2022-10-18T15:34:22;17.30;82.40
40636;DHT22;26642;55.766;37.828;2022-10-18T15:36:51;17.30;82.30
40636;DHT22;26642;55.766;37.828;2022-10-18T15:39:21;17.30;82.10
40636;DHT22;26642;55.766;37.828;2022-10-18T15:41:53;17.30;81.90
40636;DHT22;26642;55.766;37.828;2022-10-18T15:46:55;17.30;82.00
40636;DHT22;26642;55.766;37.828;2022-10-18T15:54:56;17.40;81.70
40636;DHT22;26642;55.766;37.828;2022-10-18T15:57:23;17.40;81.50
40636;DHT22;26642;55.766;37.828;2022-10-18T16:00:03;17.40;81.20
40636;DHT22;26642;55.766;37.828;2022-10-18T16:02:37;17.40;81.20
40636;DHT22;26642;55.766;37.828;2022-10-18T16:05:03;17.40;80.90
40636;DHT22;26642;55.766;37.828;2022-10-18T16:07:29;17.40;80.80
40636;DHT22;26642;55.766;37.828;2022-10-18T16:09:55;17.40;80.40
40636;DHT22;26642;55.766;37.828;2022-10-18T16:12:22;17.40;80.20
40636;DHT22;26642;55.766;37.828;2022-10-18T16:14:49;17.40;80.20
40636;DHT22;26642;55.766;37.828;2022-10-18T16:17:15;17.40;80.10
40636;DHT22;26642;55.766;37.828;2022-10-18T16:19:44;17.40;79.80
40636;DHT22;26642;55.766;37.828;2022-10-18T16:22:18;17.40;79.50
40636;DHT22;26642;55.766;37.828;2022-10-18T16:24:44;17.40;79.60
40636;DHT22;26642;55.766;37.828;2022-10-18T16:27:10;17.30;78.90
40636;DHT22;26642;55.766;37.828;2022-10-18T16:29:36;17.30;78.90
40636;DHT22;26642;55.766;37.828;2022-10-18T16:32:02;17.30;78.90
40636;DHT22;26642;55.766;37.828;2022-10-18T16:34:28;17.30;78.90
40636;DHT22;26642;55.766;37.828;2022-10-18T16:36:56;17.30;79.10
40636;DHT22;26642;55.766;37.828;2022-10-18T16:39:23;17.30;79.00
40636;DHT22;26642;55.766;37.828;2022-10-18T16:41:49;17.30;78.40
40636;DHT22;26642;55.766;37.828;2022-10-18T16:44:16;17.30;78.10
40636;DHT22;26642;55.766;37.828;2022-10-18T16:46:46;17.20;78.20
40636;DHT22;26642;55.766;37.828;2022-10-18T16:49:22;17.20;78.10
40636;DHT22;26642;55.766;37.828;2022-10-18T16:51:49;17.20;77.70
40636;DHT22;26642;55.766;37.828;2022-10-18T16:54:15;17.20;77.40
40636;DHT22;26642;55.766;37.828;2022-10-18T16:56:41;17.20;77.20
40636;DHT22;26642;55.766;37.828;2022-10-18T16:59:23;17.10;77.00
40636;DHT22;26642;55.766;37.828;2022-10-18T17:01:50;17.10;76.70
40636;DHT22;26642;55.766;37.828;2022-10-18T17:04:16;17.10;76.60
40636;DHT22;26642;55.766;37.828;2022-10-18T17:06:42;17.10;76.50
40636;DHT22;26642;55.766;37.828;2022-10-18T17:09:09;17.00;76.10
40636;DHT22;26642;55.766;37.828;2022-10-18T17:11:36;17.00;76.10
40636;DHT22;26642;55.766;37.828;2022-10-18T17:14:02;17.00;76.10
40636;DHT22;26642;55.766;37.828;2022-10-18T17:16:33;16.90;76.20
40636;DHT22;26642;55.766;37.828;2022-10-18T17:19:05;16.90;75.90
40636;DHT22;26642;55.766;37.828;2022-10-18T17:21:32;16.90;76.10
40636;DHT22;26642;55.766;37.828;2022-10-18T17:23:58;16.90;75.80
40636;DHT22;26642;55.766;37.828;2022-10-18T17:26:26;16.90;76.10
40636;DHT22;26642;55.766;37.828;2022-10-18T17:28:54;16.80;76.10
40636;DHT22;26642;55.766;37.828;2022-10-18T17:31:21;16.80;76.10
40636;DHT22;26642;55.766;37.828;2022-10-18T17:33:48;16.80;76.40
40636;DHT22;26642;55.766;37.828;2022-10-18T17:36:15;16.80;76.20
40636;DHT22;26642;55.766;37.828;2022-10-18T17:38:41;16.80;76.30
40636;DHT22;26642;55.766;37.828;2022-10-18T17:41:09;16.80;76.10
40636;DHT22;26642;55.766;37.828;2022-10-18T17:43:36;16.70;75.60
40636;DHT22;26642;55.766;37.828;2022-10-18T17:46:03;16.70;76.20
40636;DHT22;26642;55.766;37.828;2022-10-18T17:48:29;16.70;76.20
40636;DHT22;26642;55.766;37.828;2022-10-18T17:50:55;16.70;76.10
40636;DHT22;26642;55.766;37.828;2022-10-18T17:53:21;16.60;76.00
40636;DHT22;26642;55.766;37.828;2022-10-18T17:56:00;16.60;76.10
40636;DHT22;26642;55.766;37.828;2022-10-18T17:58:26;16.60;76.10
40636;DHT22;26642;55.766;37.828;2022-10-18T18:00:53;16.60;75.70
40636;DHT22;26642;55.766;37.828;2022-10-18T18:03:19;16.60;75.80
40636;DHT22;26642;55.766;37.828;2022-10-18T18:05:45;16.50;75.60
40636;DHT22;26642;55.766;37.828;2022-10-18T18:08:12;16.50;75.90
40636;DHT22;26642;55.766;37.828;2022-10-18T18:10:39;16.50;76.00
40636;DHT22;26642;55.766;37.828;2022-10-18T18:13:05;16.50;76.20